FW8103 Weather Reports


Display with metric or nautical units.
time (UTC)temp
F
wind
direction
speed
MPH
gust
MPH
rain 1hr
in
rain 24hr
in
rain mn
in
humidity
%
barometer
mb
20220627152132 71 264 0.0 0.0 0.00 0.20 0.20 93
20220627151631 71 176 0.0 0.0 0.00 0.20 0.20 93
20220627151130 71 264 0.0 0.0 0.14 0.20 0.20 92
20220627150628 71 176 0.0 1.0 0.14 0.19 0.19 92
20220627150128 71 176 0.0 0.0 0.21 0.18 0.18 91
20220627145627 72 88 0.0 0.0 0.43 0.17 0.17 90
20220627145125 72 264 3.0 5.0 0.50 0.13 0.13 90
20220627144623 73 132 0.0 4.0 0.14 0.07 0.07 87
20220627144122 73 264 0.0 0.0 0.00 0.05 0.05 86
20220627143622 73 264 0.0 0.0 0.21 0.05 0.05 86
20220627143121 74 264 0.0 3.0 0.28 0.05 0.05 83
20220627142619 75 0 0.0 1.0 0.00 0.00 0.00 79
20220627142118 75 176 0.0 1.0 0.00 0.00 0.00 77
20220627141617 75 264 1.0 7.0 0.00 0.00 0.00 76
20220627141117 75 176 0.0 0.0 0.00 0.00 0.00 76
20220627140616 75 264 3.0 8.0 0.00 0.00 0.00 76
20220627140116 75 176 0.0 3.0 0.00 0.00 0.00 77
20220627135615 74 220 0.0 4.0 0.00 0.00 0.00 77
20220627135114 74 220 0.0 0.0 0.00 0.00 0.00 77
20220627134613 74 44 0.0 0.0 0.00 0.00 0.00 76
20220627134111 74 44 0.0 0.0 0.00 0.00 0.00 76
20220627133609 74 264 0.0 4.0 0.00 0.00 0.00 76
20220627133108 74 0 0.0 0.0 0.00 0.00 0.00 77
20220627132607 74 264 1.0 4.0 0.00 0.00 0.00 76
20220627132106 74 0 0.0 3.0 0.00 0.00 0.00 77
20220627131605 74 88 0.0 1.0 0.00 0.00 0.00 76
20220627131104 74 264 1.0 5.0 0.00 0.00 0.00 77
20220627130603 74 264 0.0 1.0 0.00 0.00 0.00 76
20220627130102 74 176 0.0 5.0 0.00 0.00 0.00 76
20220627125601 73 88 0.0 1.0 0.00 0.00 0.00 76
20220627125100 73 264 0.0 4.0 0.00 0.00 0.00 76
20220627124559 73 88 0.0 1.0 0.00 0.00 0.00 76
20220627124057 73 176 1.0 5.0 0.00 0.00 0.00 76
20220627123556 73 264 0.0 0.0 0.00 0.00 0.00 76
20220627123056 73 220 0.0 0.0 0.00 0.00 0.00 76
20220627122554 73 220 0.0 1.0 0.00 0.00 0.00 76
20220627122053 73 264 0.0 4.0 0.00 0.00 0.00 77
20220627121551 73 88 0.0 0.0 0.00 0.00 0.00 76
20220627121051 73 88 0.0 0.0 0.00 0.00 0.00 76
20220627120550 73 264 0.0 1.0 0.00 0.00 0.00 76
20220627120049 72 176 1.0 5.0 0.00 0.00 0.00 77
20220627115548 72 176 0.0 1.0 0.00 0.00 0.00 77
20220627115047 72 0 0.0 3.0 0.00 0.00 0.00 76
20220627114546 72 176 0.0 3.0 0.00 0.00 0.00 76
20220627114046 72 176 0.0 1.0 0.00 0.00 0.00 76
20220627113546 72 220 0.0 4.0 0.00 0.00 0.00 76
20220627113045 72 88 0.0 1.0 0.00 0.00 0.00 76
20220627112544 72 0 0.0 0.0 0.00 0.00 0.00 76
20220627112042 71 176 1.0 5.0 0.00 0.00 0.00 76
20220627111543 71 176 0.0 0.0 0.00 0.00 0.00 76
20220627111041 71 264 0.0 1.0 0.00 0.00 0.00 75
20220627110541 71 220 0.0 1.0 0.00 0.00 0.00 75
20220627110040 71 176 0.0 3.0 0.00 0.00 0.00 75
20220627105539 71 264 0.0 1.0 0.00 0.00 0.00 75
20220627105038 71 176 1.0 7.0 0.00 0.00 0.00 75
20220627104537 71 308 1.0 4.0 0.00 0.00 0.00 75
20220627104037 71 264 0.0 0.0 0.00 0.00 0.00 75
20220627103537 71 264 1.0 4.0 0.00 0.00 0.00 75
20220627103036 71 176 0.0 1.0 0.00 0.00 0.00 76
20220627102535 71 264 1.0 4.0 0.00 0.00 0.00 75
20220627102035 70 0 0.0 1.0 0.00 0.00 0.00 75
20220627101533 70 88 1.0 4.0 0.00 0.00 0.00 75
20220627101033 70 44 0.0 1.0 0.00 0.00 0.00 75
20220627100532 70 264 0.0 1.0 0.00 0.00 0.00 75
20220627100032 70 264 0.0 1.0 0.00 0.00 0.00 75
20220627095530 70 176 0.0 1.0 0.00 0.00 0.00 75
20220627095030 70 132 0.0 3.0 0.00 0.00 0.00 75
20220627094529 70 264 0.0 1.0 0.00 0.00 0.00 74
20220627094029 70 0 0.0 1.0 0.00 0.00 0.00 74
20220627093529 70 176 0.0 0.0 0.00 0.00 0.00 73
20220627093029 70 176 0.0 1.0 0.00 0.00 0.00 73
20220627092527 70 176 0.0 0.0 0.00 0.00 0.00 74
20220627092026 70 132 0.0 0.0 0.00 0.00 0.00 73
20220627091525 70 264 0.0 0.0 0.00 0.00 0.00 73
20220627091025 70 0 0.0 0.0 0.00 0.00 0.00 72
20220627090523 70 264 0.0 0.0 0.00 0.00 0.00 72
20220627090023 70 264 0.0 3.0 0.00 0.00 0.00 72
20220627085522 70 264 0.0 0.0 0.00 0.00 0.00 71
20220627085021 70 264 0.0 1.0 0.00 0.00 0.00 71
20220627084520 70 176 0.0 0.0 0.00 0.00 0.00 70
20220627084019 70 44 0.0 1.0 0.00 0.00 0.00 71
20220627083518 70 176 0.0 1.0 0.00 0.00 0.00 70
20220627083018 70 176 0.0 0.0 0.00 0.00 0.00 69
20220627082518 70 0 0.0 1.0 0.00 0.00 0.00 69
20220627082016 70 176 0.0 0.0 0.00 0.00 0.00 68
20220627081516 70 88 0.0 3.0 0.00 0.00 0.00 69
20220627081016 70 264 0.0 0.0 0.00 0.00 0.00 69
20220627080515 71 0 0.0 0.0 0.00 0.00 0.00 68
20220627080014 70 308 0.0 1.0 0.00 0.00 0.00 68
20220627075513 70 264 1.0 7.0 0.00 0.00 0.00 68
20220627075012 71 264 0.0 1.0 0.00 0.00 0.00 67
20220627074512 70 264 0.0 1.0 0.00 0.00 0.00 67
20220627074010 70 308 0.0 0.0 0.00 0.00 0.00 66
20220627073509 71 176 0.0 0.0 0.00 0.00 0.00 66
20220627073009 71 0 0.0 0.0 0.00 0.00 0.00 65
20220627072509 71 264 1.0 4.0 0.00 0.00 0.00 65
20220627072008 71 132 0.0 1.0 0.00 0.00 0.00 64
20220627071507 71 176 0.0 1.0 0.00 0.00 0.00 65
20220627071007 71 264 0.0 1.0 0.00 0.00 0.00 64
20220627070505 71 176 0.0 1.0 0.00 0.00 0.00 63
20220627070004 71 132 1.0 4.0 0.00 0.00 0.00 63
20220627065504 71 88 0.0 0.0 0.00 0.00 0.00 62
20220627065003 71 308 1.0 3.0 0.00 0.00 0.00 62
20220627064502 71 176 0.0 0.0 0.00 0.00 0.00 61
20220627064002 71 220 1.0 3.0 0.00 0.00 0.00 61
20220627063500 71 220 0.0 1.0 0.00 0.00 0.00 61
20220627063000 71 264 0.0 3.0 0.00 0.00 0.00 61
20220627062459 71 176 0.0 0.0 0.00 0.00 0.00 60
20220627061958 71 176 0.0 0.0 0.00 0.00 0.00 60
20220627061457 72 264 0.0 3.0 0.00 0.00 0.00 60
20220627060956 72 264 0.0 3.0 0.00 0.00 0.00 59
20220627060456 72 264 0.0 0.0 0.00 0.00 0.00 59
20220627055955 72 220 0.0 3.0 0.00 0.00 0.00 59
20220627055454 72 264 0.0 3.0 0.00 0.00 0.00 58
20220627054954 72 132 0.0 1.0 0.00 0.00 0.00 58
20220627054452 72 176 0.0 3.0 0.00 0.00 0.00 58
20220627053952 72 176 0.0 3.0 0.00 0.00 0.00 58
20220627053450 72 0 0.0 3.0 0.00 0.00 0.00 58
20220627052949 72 176 3.0 7.0 0.00 0.00 0.00 58
20220627052448 72 88 0.0 1.0 0.00 0.00 0.00 58
20220627051947 72 176 0.0 3.0 0.00 0.00 0.00 58
20220627051446 72 88 0.0 0.0 0.00 0.00 0.00 58
20220627050946 73 132 0.0 0.0 0.00 0.00 0.00 58
20220627050446 73 176 0.0 0.0 0.00 0.00 0.00 58
20220627045945 73 0 0.0 0.0 0.00 0.00 0.00 58
20220627045444 73 264 0.0 3.0 0.00 0.00 0.00 58
20220627044942 73 220 0.0 1.0 0.00 0.00 0.00 58
20220627044441 73 132 0.0 0.0 0.00 0.00 0.00 58
20220627043940 73 176 0.0 1.0 0.00 0.00 0.00 58
20220627043438 73 176 0.0 3.0 0.00 0.00 0.00 57
20220627042937 74 176 0.0 0.0 0.00 0.00 0.00 57
20220627042436 74 220 0.0 0.0 0.00 0.00 0.00 57
20220627041936 74 176 1.0 3.0 0.00 0.00 0.00 57
20220627041436 74 132 0.0 3.0 0.00 0.00 0.00 57
20220627040936 74 176 1.0 4.0 0.00 0.00 0.00 57
20220627040436 74 176 0.0 1.0 0.00 0.00 0.00 57
20220627035935 75 176 1.0 4.0 0.00 0.04 0.04 57
20220627035434 75 88 1.0 3.0 0.00 0.04 0.04 58
20220627034934 75 176 0.0 0.0 0.00 0.04 0.04 58
20220627034432 75 220 0.0 1.0 0.00 0.04 0.04 58
20220627033931 75 132 0.0 1.0 0.00 0.04 0.04 58
20220627033430 75 176 0.0 4.0 0.00 0.04 0.04 58
20220627032929 76 308 0.0 0.0 0.00 0.04 0.04 59
20220627032429 76 220 1.0 3.0 0.00 0.04 0.04 59
20220627031928 76 88 0.0 0.0 0.00 0.04 0.04 60
20220627031428 76 0 0.0 0.0 0.00 0.04 0.04 60
20220627030928 76 88 0.0 1.0 0.00 0.04 0.04 61
20220627030426 77 176 0.0 0.0 0.00 0.04 0.04 61
20220627025925 77 220 0.0 1.0 0.00 0.04 0.04 62
20220627025423 77 132 0.0 0.0 0.00 0.04 0.04 62
20220627024922 77 132 0.0 5.0 0.00 0.04 0.04 63
20220627024422 78 176 0.0 0.0 0.00 0.04 0.04 63
20220627023921 78 176 0.0 1.0 0.00 0.04 0.04 63
20220627023421 78 176 0.0 1.0 0.00 0.04 0.04 63
20220627022921 78 132 0.0 1.0 0.00 0.04 0.04 63
20220627022419 78 264 0.0 0.0 0.00 0.04 0.04 63
20220627021918 78 264 0.0 0.0 0.00 0.04 0.04 63
20220627021416 79 176 0.0 1.0 0.00 0.04 0.04 63
20220627020915 79 176 0.0 0.0 0.00 0.04 0.04 63
20220627020414 79 264 0.0 0.0 0.00 0.04 0.04 63
20220627015914 79 0 0.0 0.0 0.00 0.04 0.04 62
20220627015412 79 176 0.0 1.0 0.00 0.04 0.04 63
20220627014911 80 88 0.0 0.0 0.00 0.04 0.04 62
20220627014410 80 176 0.0 3.0 0.00 0.04 0.04 61
20220627013909 80 176 0.0 1.0 0.00 0.04 0.04 62
20220627013408 80 88 0.0 1.0 0.00 0.04 0.04 61
20220627012907 80 264 0.0 0.0 0.00 0.04 0.04 59
20220627012406 81 0 0.0 0.0 0.00 0.04 0.04 58
20220627011905 81 132 0.0 0.0 0.00 0.04 0.04 58
20220627011404 81 88 0.0 0.0 0.00 0.04 0.04 57
20220627010903 81 132 0.0 0.0 0.00 0.04 0.04 58
20220627010403 81 88 0.0 0.0 0.00 0.04 0.04 57
20220627005903 82 176 0.0 0.0 0.00 0.04 0.04 56
20220627005402 82 132 0.0 0.0 0.00 0.04 0.04 56
20220627004901 82 88 0.0 0.0 0.00 0.04 0.04 55
20220627004400 82 0 0.0 0.0 0.00 0.04 0.04 55
20220627003900 82 176 0.0 0.0 0.00 0.04 0.04 55
20220627003358 83 264 0.0 1.0 0.00 0.04 0.04 54
20220627002857 83 176 0.0 0.0 0.00 0.04 0.04 54
20220627002355 83 308 0.0 1.0 0.00 0.04 0.04 53
20220627001855 84 88 0.0 0.0 0.00 0.04 0.04 53
20220627001354 84 176 0.0 0.0 0.00 0.04 0.04 52
20220627000854 84 132 0.0 0.0 0.00 0.04 0.04 52
20220627000352 85 88 0.0 0.0 0.00 0.04 0.04 51
20220626235852 85 176 0.0 1.0 0.00 0.04 0.04 51
20220626235351 85 88 0.0 0.0 0.00 0.04 0.04 51
20220626234850 85 44 0.0 3.0 0.00 0.04 0.04 51
20220626234349 86 88 0.0 1.0 0.00 0.04 0.04 51
20220626233849 86 264 0.0 0.0 0.00 0.04 0.04 50
20220626233347 86 88 0.0 1.0 0.00 0.04 0.04 50
20220626232847 86 88 0.0 0.0 0.00 0.04 0.04 50
20220626232345 87 176 0.0 1.0 0.00 0.04 0.04 49
20220626224931 90 0 0.0 1.0 0.00 0.04 0.04 47
20220626224430 90 0 0.0 1.0 0.00 0.04 0.04 47
20220626223928 90 132 0.0 3.0 0.00 0.04 0.04 47
20220626223427 90 132 1.0 3.0 0.00 0.04 0.04 47
20220626222925 91 264 1.0 5.0 0.00 0.04 0.04 46
20220626222423 91 132 0.0 0.0 0.00 0.04 0.04 46
20220626221922 91 264 3.0 7.0 0.00 0.04 0.04 44
20220626221422 91 176 3.0 8.0 0.00 0.04 0.04 44
20220626220920 92 264 1.0 4.0 0.00 0.04 0.04 44
20220626220421 92 220 1.0 5.0 0.00 0.04 0.04 43
20220626215920 92 88 0.0 0.0 0.00 0.04 0.04 44
20220626215418 92 220 0.0 3.0 0.00 0.04 0.04 43
20220626214917 92 176 1.0 4.0 0.00 0.04 0.04 41
20220626214416 93 176 0.0 5.0 0.00 0.04 0.04 41
20220626213916 93 88 1.0 9.0 0.00 0.04 0.04 40
20220626213414 93 264 0.0 0.0 0.00 0.04 0.04 39
20220626212913 93 176 1.0 3.0 0.00 0.04 0.04 36
20220626212411 94 220 1.0 4.0 0.00 0.04 0.04 36
20220626211910 94 220 3.0 5.0 0.00 0.04 0.04 36
20220626211410 94 176 1.0 4.0 0.00 0.04 0.04 36
20220626210910 94 264 1.0 3.0 0.00 0.04 0.04 37
20220626210408 95 220 1.0 3.0 0.00 0.04 0.04 38
20220626205907 94 88 0.0 1.0 0.00 0.04 0.04 38
20220626205407 94 88 0.0 0.0 0.00 0.04 0.04 37
20220626204907 95 88 0.0 1.0 0.00 0.04 0.04 38
20220626204406 94 88 1.0 3.0 0.00 0.04 0.04 37
20220626203905 94 88 0.0 0.0 0.21 0.04 0.04 37
20220626203404 94 88 0.0 1.0 0.21 0.04 0.04 38
20220626202903 94 88 0.0 3.0 0.00 0.00 0.00 39
20220626202402 94 88 3.0 7.0 0.00 0.00 0.00 38
20220626201902 94 88 1.0 4.0 0.00 0.00 0.00 37
20220626201401 94 88 0.0 4.0 0.00 0.00 0.00 38
20220626200900 94 88 1.0 4.0 0.00 0.00 0.00 38
20220626200400 94 88 3.0 4.0 0.00 0.00 0.00 36
20220626195859 94 88 1.0 3.0 0.00 0.00 0.00 35
20220626195359 94 88 1.0 4.0 0.00 0.00 0.00 37
20220626194858 93 88 3.0 7.0 0.00 0.00 0.00 38
20220626194357 94 88 1.0 7.0 0.00 0.00 0.00 39
20220626193856 93 88 0.0 1.0 0.00 0.00 0.00 39
20220626193356 93 88 0.0 3.0 0.00 0.00 0.00 39
20220626192854 93 88 0.0 0.0 0.00 0.00 0.00 40
20220626192354 93 88 1.0 3.0 0.00 0.00 0.00 39
20220626191854 93 88 1.0 4.0 0.00 0.00 0.00 40
20220626191353 93 88 0.0 1.0 0.00 0.00 0.00 40
20220626190853 93 88 0.0 3.0 0.00 0.00 0.00 39
20220626190352 92 88 1.0 3.0 0.00 0.00 0.00 41
20220626185851 93 88 1.0 4.0 0.00 0.00 0.00 38
20220626185350 93 88 0.0 1.0 0.00 0.00 0.00 39
20220626184850 93 88 0.0 3.0 0.00 0.00 0.00 39
20220626184349 93 88 1.0 3.0 0.00 0.00 0.00 39
20220626183848 93 88 1.0 3.0 0.00 0.00 0.00 37
20220626183347 93 88 0.0 0.0 0.00 0.00 0.00 39
20220626182847 94 88 3.0 7.0 0.00 0.00 0.00 37
20220626182347 94 88 0.0 3.0 0.00 0.00 0.00 39
20220626181847 93 88 1.0 3.0 0.00 0.00 0.00 38
20220626181345 93 88 3.0 5.0 0.00 0.00 0.00 39
20220626180844 93 88 0.0 1.0 0.00 0.00 0.00 39
20220626180343 93 88 0.0 1.0 0.00 0.00 0.00 41
20220626175843 93 88 1.0 3.0 0.00 0.00 0.00 40
20220626175342 93 88 3.0 5.0 0.00 0.00 0.00 40
20220626174841 92 88 0.0 1.0 0.00 0.00 0.00 39
20220626174340 92 88 0.0 1.0 0.00 0.00 0.00 40
20220626173840 92 88 0.0 1.0 0.00 0.00 0.00 40
20220626173339 92 88 1.0 3.0 0.00 0.00 0.00 40
20220626172839 92 88 0.0 3.0 0.00 0.00 0.00 40
20220626172338 92 88 1.0 3.0 0.00 0.00 0.00 42
20220626171836 92 88 1.0 3.0 0.00 0.00 0.00 40
20220626171335 92 88 1.0 3.0 0.00 0.00 0.00 42
20220626170835 92 88 0.0 1.0 0.00 0.00 0.00 39
20220626170334 93 88 1.0 5.0 0.00 0.00 0.00 40
20220626165834 93 88 0.0 1.0 0.00 0.00 0.00 41
20220626165334 92 88 0.0 3.0 0.00 0.00 0.00 40
20220626164832 92 88 1.0 5.0 0.00 0.00 0.00 43
20220626164331 92 88 1.0 4.0 0.00 0.00 0.00 40
20220626163831 92 88 0.0 3.0 0.00 0.00 0.00 41
20220626163331 92 88 1.0 3.0 0.00 0.00 0.00 39
20220626162831 92 88 0.0 3.0 0.00 0.00 0.00 42
20220626162330 92 88 0.0 3.0 0.00 0.00 0.00 39
20220626161829 91 88 1.0 3.0 0.00 0.00 0.00 42
20220626161329 92 88 1.0 4.0 0.00 0.00 0.00 43
20220626160828 92 88 0.0 3.0 0.00 0.00 0.00 43
20220626160327 92 88 1.0 5.0 0.00 0.00 0.00 43
20220626155826 91 88 0.0 1.0 0.00 0.00 0.00 43
20220626155326 91 88 1.0 4.0 0.00 0.00 0.00 46
20220626154824 91 88 3.0 8.0 0.00 0.00 0.00 42
20220626154323 91 88 0.0 1.0 0.00 0.00 0.00 45
20220626153822 91 88 3.0 7.0 0.00 0.00 0.00 46
20220626153322 91 88 1.0 3.0 0.00 0.00 0.00 47
20220626152822 90 88 0.0 3.0 0.00 0.00 0.00 47
20220626152320 90 88 3.0 5.0 0.00 0.00 0.00 45